createdAt,value
2018-09-28T00:01:59.104Z,89.46
2018-09-28T00:04:29.250Z,88.84
2018-09-28T00:06:59.727Z,89.97
2018-09-28T00:09:29.853Z,90.75
2018-09-28T00:11:59.913Z,90.58
2018-09-28T00:14:29.935Z,90.68
2018-09-28T00:17:00.041Z,90.79
2018-09-28T00:19:30.266Z,91.54
2018-09-28T00:22:00.264Z,91.23
2018-09-28T00:24:30.440Z,91.63
2018-09-28T00:27:00.436Z,90.97
2018-09-28T00:29:30.468Z,91.92
2018-09-28T00:32:00.513Z,91.96
2018-09-28T00:34:30.558Z,92.16
2018-09-28T00:37:00.579Z,92.47
2018-09-28T00:39:31.065Z,91.49
2018-09-28T00:42:01.155Z,92.05
2018-09-28T00:44:31.150Z,92.24
2018-09-28T00:47:01.207Z,92.67
2018-09-28T00:49:31.199Z,93.67
2018-09-28T00:52:01.271Z,92.93
2018-09-28T00:54:31.311Z,92.59
2018-09-28T00:57:01.582Z,93.61
2018-09-28T00:59:31.644Z,94.00
2018-09-28T01:02:01.634Z,94.69
2018-09-28T01:04:31.750Z,94.29
2018-09-28T01:07:01.803Z,94.26
2018-09-28T01:09:31.814Z,94.43
2018-09-28T01:12:01.836Z,94.20
2018-09-28T01:14:31.874Z,93.75
2018-09-28T01:17:01.880Z,93.79
2018-09-28T01:19:31.909Z,93.63
2018-09-28T01:22:01.963Z,94.87
2018-09-28T01:24:32.047Z,95.18
2018-09-28T01:27:02.142Z,94.38
2018-09-28T01:29:32.389Z,94.17
2018-09-28T01:32:02.384Z,94.91
2018-09-28T01:34:32.431Z,95.33
2018-09-28T01:37:02.475Z,95.17
2018-09-28T01:39:32.715Z,94.95
2018-09-28T01:42:02.739Z,95.14
2018-09-28T01:44:32.805Z,95.05
2018-09-28T01:47:02.782Z,95.40
2018-09-28T01:49:32.796Z,95.66
2018-09-28T01:52:02.865Z,95.45
2018-09-28T01:54:33.027Z,95.40
2018-09-28T01:57:03.069Z,95.92
2018-09-28T01:59:33.285Z,95.51
2018-09-28T02:02:03.299Z,95.39
2018-09-28T02:04:33.399Z,95.56
2018-09-28T02:07:03.463Z,95.76
2018-09-28T02:09:33.475Z,95.58
2018-09-28T02:12:03.481Z,96.24
2018-09-28T02:14:33.861Z,96.75
2018-09-28T02:17:03.824Z,96.65
2018-09-28T02:19:34.768Z,96.33
2018-09-28T02:22:04.809Z,96.60
2018-09-28T02:24:34.989Z,96.60
2018-09-28T02:27:05.293Z,96.55
2018-09-28T02:29:35.368Z,96.45
2018-09-28T02:32:05.544Z,96.29
2018-09-28T02:34:35.604Z,96.74
2018-09-28T02:37:05.600Z,97.01
2018-09-28T02:39:35.740Z,96.70
2018-09-28T02:42:05.753Z,96.44
2018-09-28T02:44:35.809Z,96.15
2018-09-28T02:47:05.917Z,96.85
2018-09-28T02:49:35.967Z,96.96
2018-09-28T02:52:06.029Z,97.18
2018-09-28T02:54:36.083Z,96.97
2018-09-28T02:57:06.103Z,97.77
2018-09-28T02:59:36.705Z,98.08
2018-09-28T03:02:06.714Z,98.51
2018-09-28T03:04:36.789Z,97.76
2018-09-28T03:07:06.886Z,97.88
2018-09-28T03:09:37.794Z,97.98
2018-09-28T03:12:07.899Z,97.70
2018-09-28T03:14:37.993Z,97.75
2018-09-28T03:17:08.115Z,97.67
2018-09-28T03:19:38.416Z,97.02
2018-09-28T03:22:08.507Z,97.07
2018-09-28T03:24:38.511Z,97.08
2018-09-28T03:27:08.547Z,96.70
2018-09-28T03:29:38.618Z,97.84
2018-09-28T03:32:09.081Z,98.57
2018-09-28T03:34:39.065Z,98.45
2018-09-28T03:37:09.477Z,97.76
2018-09-28T03:39:39.619Z,97.95
2018-09-28T03:42:09.666Z,98.30
2018-09-28T03:44:39.664Z,97.88
2018-09-28T03:47:09.702Z,98.51
2018-09-28T03:49:39.850Z,98.37
2018-09-28T03:52:09.963Z,97.88
2018-09-28T03:54:39.973Z,97.85
2018-09-28T03:57:10.007Z,98.25
2018-09-28T03:59:40.106Z,98.41
2018-09-28T04:02:10.183Z,97.73
2018-09-28T04:04:40.311Z,97.72
2018-09-28T04:07:10.380Z,97.22
2018-09-28T04:09:40.434Z,97.15
2018-09-28T04:12:10.414Z,97.10
2018-09-28T04:14:40.595Z,97.50
2018-09-28T04:17:10.978Z,97.85
2018-09-28T04:19:40.951Z,98.09
2018-09-28T04:22:11.152Z,97.86
2018-09-28T04:24:41.282Z,98.24
2018-09-28T04:27:15.993Z,98.25
2018-09-28T04:29:46.091Z,98.66
2018-09-28T04:32:16.144Z,98.46
2018-09-28T04:34:46.458Z,99.08
2018-09-28T04:37:16.585Z,98.35
2018-09-28T04:39:46.648Z,98.10
2018-09-28T04:42:16.745Z,98.34
2018-09-28T04:44:46.825Z,98.21
2018-09-28T04:47:16.817Z,98.77
2018-09-28T04:49:46.836Z,98.95
2018-09-28T04:52:16.940Z,98.65
2018-09-28T04:54:47.298Z,98.72
2018-09-28T04:57:17.301Z,98.76
2018-09-28T04:59:47.366Z,98.76
2018-09-28T05:02:18.201Z,100.00
2018-09-28T05:04:48.292Z,99.98
2018-09-28T05:07:18.321Z,99.76
2018-09-28T05:09:49.116Z,99.69
2018-09-28T05:12:19.128Z,99.40
2018-09-28T05:14:49.723Z,99.19
2018-09-28T05:17:19.845Z,98.89
2018-09-28T05:19:49.892Z,99.50
2018-09-28T05:22:20.620Z,99.54
2018-09-28T05:24:50.701Z,99.50
2018-09-28T05:27:21.090Z,99.23
2018-09-28T05:29:51.575Z,99.09
2018-09-28T05:32:23.057Z,99.26
2018-09-28T05:34:56.084Z,99.51
2018-09-28T05:37:26.668Z,99.81
2018-09-28T05:39:57.951Z,99.28
2018-09-28T05:42:28.972Z,99.43
2018-09-28T05:45:00.480Z,99.14
2018-09-28T05:47:30.752Z,98.82
2018-09-28T05:50:01.196Z,98.24
2018-09-28T05:52:31.703Z,98.63
2018-09-28T05:55:01.916Z,98.46
2018-09-28T05:57:32.031Z,97.61
2018-09-28T06:00:07.837Z,97.68
2018-09-28T06:02:43.225Z,97.33
2018-09-28T06:05:18.821Z,96.80
2018-09-28T06:07:49.793Z,96.21
2018-09-28T06:10:23.451Z,96.09
2018-09-28T06:12:53.458Z,95.69
2018-09-28T06:15:24.122Z,95.55
2018-09-28T06:17:54.198Z,95.34
2018-09-28T06:20:24.912Z,94.95
2018-09-28T06:22:55.566Z,93.66
2018-09-28T06:25:26.870Z,93.51
2018-09-28T06:27:57.960Z,92.75
2018-09-28T06:30:28.022Z,92.09
2018-09-28T06:32:58.626Z,91.17
2018-09-28T06:35:30.241Z,90.25
2018-09-28T06:38:01.324Z,88.82
2018-09-28T06:40:33.246Z,88.57
2018-09-28T06:43:03.593Z,87.20
2018-09-28T06:45:34.791Z,86.33
2018-09-28T06:48:05.112Z,86.00
2018-09-28T06:50:36.304Z,85.87
2018-09-28T06:53:07.458Z,85.25
2018-09-28T06:55:38.394Z,84.30
2018-09-28T06:58:08.597Z,83.42
2018-09-28T07:00:39.657Z,82.59
2018-09-28T07:03:10.893Z,81.89
2018-09-28T07:05:41.137Z,81.15
2018-09-28T07:08:11.298Z,80.54
2018-09-28T07:10:42.558Z,80.22
2018-09-28T07:13:12.835Z,78.78
2018-09-28T07:15:44.135Z,77.57
2018-09-28T07:18:15.348Z,76.18
2018-09-28T07:20:45.791Z,75.98
2018-09-28T07:23:16.369Z,75.25
2018-09-28T07:25:47.159Z,74.63
2018-09-28T07:28:18.414Z,71.49
2018-09-28T07:30:50.455Z,70.91
2018-09-28T07:33:20.600Z,70.46
2018-09-28T07:35:51.341Z,69.25
2018-09-28T07:38:21.586Z,67.51
2018-09-28T07:40:52.972Z,67.93
2018-09-28T07:43:23.366Z,67.30
2018-09-28T07:45:54.724Z,65.65
2018-09-28T07:48:26.165Z,65.01
2018-09-28T07:50:56.715Z,63.12
2018-09-28T07:53:28.226Z,62.56
2018-09-28T07:55:59.335Z,62.39
2018-09-28T07:58:30.773Z,61.09
2018-09-28T08:01:00.958Z,59.17
2018-09-28T08:03:31.754Z,59.27
2018-09-28T08:06:02.278Z,59.91
2018-09-28T08:08:32.668Z,58.68
2018-09-28T08:11:02.930Z,58.38
2018-09-28T08:13:33.909Z,57.99
2018-09-28T08:16:04.383Z,56.13
2018-09-28T08:18:34.662Z,57.06
2018-09-28T08:21:05.537Z,56.36
2018-09-28T08:23:37.609Z,55.30
2018-09-28T08:26:08.508Z,54.21
2018-09-28T08:28:39.453Z,53.71
2018-09-28T08:31:10.279Z,52.97
2018-09-28T08:33:41.831Z,51.89
2018-09-28T08:36:12.113Z,51.66
2018-09-28T08:38:43.456Z,51.21
2018-09-28T08:41:14.384Z,51.27
2018-09-28T08:43:47.074Z,49.39
2018-09-28T08:46:17.282Z,49.65
2018-09-28T08:48:48.548Z,49.50
2018-09-28T08:51:19.481Z,48.05
2018-09-28T08:53:50.425Z,48.79
2018-09-28T08:56:22.122Z,47.32
2018-09-28T08:58:53.195Z,46.62
2018-09-28T09:01:23.363Z,45.91
2018-09-28T09:03:55.976Z,45.61
2018-09-28T09:06:27.476Z,44.39
2018-09-28T09:09:01.108Z,44.14
2018-09-28T09:11:32.170Z,44.00
2018-09-28T09:14:03.309Z,44.11
2018-09-28T09:16:34.995Z,43.36
2018-09-28T09:19:06.367Z,42.70
2018-09-28T09:21:38.219Z,41.76
2018-09-28T09:24:09.332Z,41.08
2018-09-28T09:26:40.632Z,41.21
2018-09-28T09:29:11.013Z,39.61
2018-09-28T09:31:41.239Z,39.97
2018-09-28T09:34:12.555Z,39.27
2018-09-28T09:36:43.636Z,38.17
2018-09-28T09:39:14.523Z,36.30
2018-09-28T09:41:45.941Z,38.29
2018-09-28T09:44:16.088Z,37.62
2018-09-28T09:46:48.604Z,36.22
2018-09-28T09:49:19.092Z,36.21
2018-09-28T09:51:50.023Z,35.82
2018-09-28T09:54:20.493Z,37.33
2018-09-28T09:56:51.688Z,36.04
2018-09-28T09:59:22.695Z,34.10
2018-09-28T10:01:57.979Z,33.26
2018-09-28T10:04:28.696Z,31.54
2018-09-28T10:06:59.553Z,31.80
2018-09-28T10:09:31.659Z,31.67
2018-09-28T10:12:01.964Z,30.77
2018-09-28T10:14:33.585Z,33.79
2018-09-28T10:17:05.479Z,33.19
2018-09-28T10:19:36.184Z,34.83
2018-09-28T10:22:09.455Z,33.33
2018-09-28T10:24:40.547Z,31.81
2018-09-28T10:27:11.064Z,31.31
2018-09-28T10:29:43.215Z,29.65
2018-09-28T10:32:15.319Z,28.80
2018-09-28T10:34:45.826Z,27.69
2018-09-28T10:37:17.017Z,28.08
2018-09-28T10:39:49.060Z,27.56
2018-09-28T10:42:19.575Z,27.19
2018-09-28T10:44:50.033Z,27.18
2018-09-28T10:47:20.977Z,27.50
2018-09-28T10:49:51.976Z,26.71
2018-09-28T10:52:23.421Z,27.70
2018-09-28T10:54:53.967Z,27.28
2018-09-28T10:57:25.125Z,25.54
2018-09-28T10:59:55.277Z,25.33
2018-09-28T11:02:26.593Z,24.89
2018-09-28T11:05:00.731Z,25.00
2018-09-28T11:07:32.181Z,25.12
2018-09-28T11:10:03.292Z,23.96
2018-09-28T11:12:33.621Z,22.35
2018-09-28T11:15:04.528Z,23.62
2018-09-28T11:17:34.977Z,24.69
2018-09-28T11:20:06.191Z,24.74
2018-09-28T11:22:36.627Z,25.51
2018-09-28T11:25:07.705Z,25.16
2018-09-28T11:27:38.820Z,23.85
2018-09-28T11:30:10.224Z,23.45
2018-09-28T11:32:40.485Z,24.99
2018-09-28T11:35:11.384Z,24.82
2018-09-28T11:37:42.085Z,25.87
2018-09-28T11:40:12.574Z,24.14
2018-09-28T11:42:43.350Z,24.60
2018-09-28T11:45:14.906Z,24.62
2018-09-28T11:47:45.401Z,24.83
2018-09-28T11:50:17.514Z,23.21
2018-09-28T11:52:49.481Z,24.62
2018-09-28T11:55:20.671Z,24.67
2018-09-28T11:57:51.823Z,25.45
2018-09-28T12:00:22.813Z,26.99
2018-09-28T12:02:53.512Z,25.92
2018-09-28T12:05:24.921Z,25.09
2018-09-28T12:07:55.064Z,23.98
2018-09-28T12:10:25.937Z,23.07
2018-09-28T12:12:56.554Z,22.71
2018-09-28T12:15:31.507Z,23.48
2018-09-28T12:18:03.472Z,22.56
2018-09-28T12:20:35.691Z,25.97
2018-09-28T12:23:06.733Z,24.38
2018-09-28T12:25:38.151Z,23.38
2018-09-28T12:28:10.372Z,22.29
2018-09-28T12:30:44.573Z,21.25
2018-09-28T12:33:21.332Z,21.96
2018-09-28T12:35:52.149Z,21.09
2018-09-28T12:38:23.798Z,21.67
2018-09-28T12:40:54.208Z,19.77
2018-09-28T12:43:25.471Z,21.65
2018-09-28T12:45:56.692Z,22.20
2018-09-28T12:48:26.875Z,21.80
2018-09-28T12:50:58.158Z,21.73
2018-09-28T12:53:29.189Z,21.42
2018-09-28T12:56:00.957Z,19.57
2018-09-28T12:58:34.145Z,20.17
2018-09-28T13:01:05.787Z,21.28
2018-09-28T13:03:36.000Z,20.22
2018-09-28T13:06:06.798Z,20.00
2018-09-28T13:08:38.787Z,18.83
2018-09-28T13:11:09.548Z,19.22
2018-09-28T13:13:41.944Z,18.88
2018-09-28T13:16:12.227Z,19.46
2018-09-28T13:18:44.875Z,18.64
2018-09-28T13:21:15.537Z,19.39
2018-09-28T13:23:46.671Z,19.35
2018-09-28T13:26:18.706Z,18.31
2018-09-28T13:28:49.925Z,18.61
2018-09-28T13:31:20.735Z,18.40
2018-09-28T13:33:52.222Z,19.18
2018-09-28T13:36:24.662Z,18.01
2018-09-28T13:38:56.977Z,17.39
2018-09-28T13:41:29.190Z,18.32
2018-09-28T13:43:59.902Z,17.98
2018-09-28T13:46:31.482Z,18.02
2018-09-28T13:49:02.083Z,19.25
2018-09-28T13:51:33.408Z,18.96
2018-09-28T13:54:03.990Z,19.26
2018-09-28T13:56:35.728Z,19.37
2018-09-28T13:59:06.104Z,16.91
2018-09-28T14:01:36.422Z,17.04
2018-09-28T14:04:07.675Z,17.63
2018-09-28T14:06:38.728Z,17.53
2018-09-28T14:09:10.024Z,18.65
2018-09-28T14:11:40.884Z,17.61
2018-09-28T14:14:11.330Z,18.69
2018-09-28T14:16:42.553Z,18.26
2018-09-28T14:19:13.698Z,17.88
2018-09-28T14:21:44.696Z,18.89
2018-09-28T14:24:15.962Z,18.76
2018-09-28T14:26:49.826Z,19.41
2018-09-28T14:29:23.665Z,20.35
2018-09-28T14:31:54.999Z,21.21
2018-09-28T14:34:25.385Z,20.54
2018-09-28T14:36:55.856Z,19.58
2018-09-28T14:39:26.591Z,20.29
2018-09-28T14:41:57.082Z,20.71
2018-09-28T14:44:27.356Z,21.13
2018-09-28T14:46:57.483Z,21.21
2018-09-28T14:49:29.301Z,22.50
2018-09-28T14:52:00.057Z,22.28
2018-09-28T14:54:31.385Z,23.10
2018-09-28T14:57:01.694Z,23.35
2018-09-28T14:59:32.226Z,22.81
2018-09-28T15:02:03.667Z,22.73
2018-09-28T15:04:34.874Z,22.55
2018-09-28T15:07:05.394Z,22.15
2018-09-28T15:09:35.502Z,22.02
2018-09-28T15:12:05.985Z,23.47
2018-09-28T15:14:39.168Z,24.32
2018-09-28T15:17:10.494Z,23.93
2018-09-28T15:19:42.671Z,24.73
2018-09-28T15:22:14.329Z,24.76
2018-09-28T15:24:45.300Z,25.14
2018-09-28T15:27:15.439Z,26.45
2018-09-28T15:29:45.911Z,25.79
2018-09-28T15:32:16.457Z,26.97
2018-09-28T15:34:46.656Z,27.04
2018-09-28T15:37:17.870Z,27.58
2018-09-28T15:39:48.400Z,29.07
2018-09-28T15:42:18.875Z,29.26
2018-09-28T15:44:50.280Z,33.30
2018-09-28T15:47:21.359Z,37.20
2018-09-28T15:49:52.946Z,38.90
2018-09-28T15:52:23.697Z,38.70
2018-09-28T15:54:55.243Z,38.32
2018-09-28T15:57:26.549Z,38.19
2018-09-28T15:59:58.305Z,38.40
2018-09-28T16:02:29.715Z,39.56
2018-09-28T16:05:00.139Z,42.46
2018-09-28T16:07:30.404Z,43.80
2018-09-28T16:10:01.014Z,44.47
2018-09-28T16:12:32.144Z,45.11
2018-09-28T16:15:02.479Z,45.19
2018-09-28T16:17:34.232Z,47.21
2018-09-28T16:20:05.291Z,48.22
2018-09-28T16:22:36.680Z,48.18
2018-09-28T16:25:08.177Z,48.89
2018-09-28T16:27:39.284Z,49.75
2018-09-28T16:30:09.422Z,49.74
2018-09-28T16:32:40.135Z,49.77
2018-09-28T16:35:10.978Z,50.55
2018-09-28T16:37:42.303Z,49.94
2018-09-28T16:40:16.407Z,50.34
2018-09-28T16:42:47.583Z,51.04
2018-09-28T16:45:18.523Z,51.17
2018-09-28T16:47:51.194Z,50.69
2018-09-28T16:50:22.666Z,51.48
2018-09-28T16:52:55.572Z,51.95
2018-09-28T16:55:28.432Z,52.42
2018-09-28T16:58:00.124Z,52.95
2018-09-28T17:00:33.822Z,52.77
2018-09-28T17:03:04.904Z,53.17
2018-09-28T17:05:35.827Z,54.21
2018-09-28T17:08:06.129Z,55.37
2018-09-28T17:10:37.598Z,55.44
2018-09-28T17:13:09.391Z,55.52
2018-09-28T17:15:40.493Z,56.94
2018-09-28T17:18:10.994Z,57.02
2018-09-28T17:20:41.293Z,57.20
2018-09-28T17:23:13.018Z,57.76
2018-09-28T17:25:43.631Z,57.97
2018-09-28T17:28:15.629Z,58.30
2018-09-28T17:30:46.733Z,58.98
2018-09-28T17:33:18.009Z,59.57
2018-09-28T17:35:48.468Z,59.68
2018-09-28T17:38:18.656Z,59.96
2018-09-28T17:40:50.302Z,60.36
2018-09-28T17:43:22.685Z,60.81
2018-09-28T17:45:54.317Z,61.35
2018-09-28T17:48:28.306Z,62.36
2018-09-28T17:50:58.831Z,62.72
2018-09-28T17:53:29.707Z,63.58
2018-09-28T17:56:02.075Z,63.50
2018-09-28T17:58:33.092Z,63.29
2018-09-28T18:01:03.257Z,64.35
2018-09-28T18:03:33.882Z,63.61
2018-09-28T18:06:06.954Z,64.01
2018-09-28T18:08:39.366Z,64.32
2018-09-28T18:11:10.487Z,64.48
2018-09-28T18:13:40.946Z,64.25
2018-09-28T18:16:18.615Z,65.15
2018-09-28T18:18:50.817Z,64.87
2018-09-28T18:21:23.193Z,64.49
2018-09-28T18:23:55.004Z,64.77
2018-09-28T18:26:25.383Z,64.34
2018-09-28T18:28:58.945Z,64.31
2018-09-28T18:31:29.627Z,64.12
2018-09-28T18:34:01.425Z,65.47
2018-09-28T18:36:32.284Z,65.40
2018-09-28T18:39:07.447Z,64.80
2018-09-28T18:41:39.242Z,65.36
2018-09-28T18:44:12.757Z,65.49
2018-09-28T18:46:46.894Z,65.99
2018-09-28T18:49:26.330Z,65.66
2018-09-28T18:51:57.944Z,65.58
2018-09-28T18:54:31.602Z,66.34
2018-09-28T18:57:03.354Z,65.76
2018-09-28T18:59:34.910Z,65.98
2018-09-28T19:02:07.666Z,65.34
2018-09-28T19:04:40.570Z,65.56
2018-09-28T19:07:12.561Z,65.37
2018-09-28T19:09:46.808Z,64.11
2018-09-28T19:12:17.176Z,63.20
2018-09-28T19:14:47.592Z,62.86
2018-09-28T19:17:23.405Z,62.71
2018-09-28T19:19:55.902Z,63.45
2018-09-28T19:22:30.973Z,63.04
2018-09-28T19:25:02.732Z,63.17
2018-09-28T19:27:33.958Z,63.38
2018-09-28T19:30:11.253Z,62.77
2018-09-28T19:32:47.032Z,62.68
2018-09-28T19:35:18.781Z,62.74
2018-09-28T19:37:49.128Z,62.39
2018-09-28T19:40:19.869Z,62.69
2018-09-28T19:42:50.034Z,63.08
2018-09-28T19:45:21.354Z,62.33
2018-09-28T19:47:56.211Z,62.21
2018-09-28T19:50:26.386Z,61.93
2018-09-28T19:52:57.665Z,61.77
2018-09-28T19:55:28.484Z,62.05
2018-09-28T19:57:59.268Z,61.45
2018-09-28T20:00:31.526Z,61.29
2018-09-28T20:03:04.015Z,60.77
2018-09-28T20:05:37.202Z,59.66
2018-09-28T20:08:08.188Z,58.84
2018-09-28T20:10:40.689Z,57.88
2018-09-28T20:13:11.159Z,57.66
2018-09-28T20:15:44.313Z,56.96
2018-09-28T20:18:14.553Z,55.84
2018-09-28T20:20:46.862Z,56.00
2018-09-28T20:23:18.321Z,55.39
2018-09-28T20:25:49.958Z,54.85
2018-09-28T20:28:20.472Z,53.94
2018-09-28T20:30:52.618Z,53.84
2018-09-28T20:33:28.315Z,53.72
2018-09-28T20:35:59.730Z,53.38
2018-09-28T20:38:31.409Z,52.96
2018-09-28T20:41:03.880Z,52.80
2018-09-28T20:43:34.910Z,52.65
2018-09-28T20:46:06.187Z,52.16
2018-09-28T20:48:37.864Z,52.81
2018-09-28T20:51:10.534Z,52.50
2018-09-28T20:53:41.312Z,53.02
2018-09-28T20:56:11.886Z,52.92
2018-09-28T20:58:43.270Z,52.82
2018-09-28T21:01:15.972Z,52.82
2018-09-28T21:03:47.025Z,53.03
2018-09-28T21:06:19.306Z,53.24
2018-09-28T21:08:51.798Z,53.44
2018-09-28T21:11:24.144Z,53.72
2018-09-28T21:13:57.028Z,52.91
2018-09-28T21:16:28.761Z,52.90
2018-09-28T21:19:00.677Z,51.61
2018-09-28T21:21:31.567Z,51.59
2018-09-28T21:24:02.819Z,51.78
2018-09-28T21:26:33.829Z,51.57
2018-09-28T21:29:05.235Z,51.71
2018-09-28T21:31:36.263Z,51.95
2018-09-28T21:34:06.542Z,51.74
2018-09-28T21:36:37.339Z,51.93
2018-09-28T21:39:09.470Z,52.14
2018-09-28T21:41:45.133Z,51.44
2018-09-28T21:44:15.404Z,50.85
2018-09-28T21:46:48.473Z,51.38
2018-09-28T21:49:19.490Z,50.70
2018-09-28T21:51:51.728Z,50.59
2018-09-28T21:54:24.202Z,50.79
2018-09-28T21:56:54.598Z,50.64
2018-09-28T21:59:25.557Z,50.39
2018-09-28T22:01:59.303Z,50.43
2018-09-28T22:04:32.429Z,50.70
2018-09-28T22:07:04.376Z,50.20
2018-09-28T22:09:35.774Z,49.96
2018-09-28T22:12:07.059Z,50.34
2018-09-28T22:14:39.474Z,50.58
2018-09-28T22:17:09.938Z,50.78
2018-09-28T22:19:41.850Z,50.34
2018-09-28T22:22:15.740Z,50.58
2018-09-28T22:24:48.287Z,51.14
2018-09-28T22:27:18.438Z,50.33
2018-09-28T22:29:50.438Z,50.39
2018-09-28T22:32:21.505Z,49.93
2018-09-28T22:34:54.672Z,50.71
2018-09-28T22:37:27.084Z,50.41
2018-09-28T22:40:00.312Z,51.65
2018-09-28T22:42:31.891Z,51.68
2018-09-28T22:45:03.721Z,53.06
2018-09-28T22:47:35.219Z,52.71
2018-09-28T22:50:08.030Z,53.01
2018-09-28T22:52:39.391Z,52.97
2018-09-28T22:55:12.477Z,52.96
2018-09-28T22:57:42.619Z,52.84
2018-09-28T23:00:14.865Z,53.72
2018-09-28T23:02:47.157Z,53.72
2018-09-28T23:05:19.541Z,54.04
2018-09-28T23:07:52.069Z,54.65
2018-09-28T23:10:24.995Z,54.58
2018-09-28T23:12:57.331Z,54.33
2018-09-28T23:15:28.309Z,54.78
2018-09-28T23:18:00.781Z,54.94
2018-09-28T23:20:31.667Z,55.02
2018-09-28T23:23:04.392Z,55.58
2018-09-28T23:25:34.569Z,55.87
2018-09-28T23:28:05.463Z,55.84
2018-09-28T23:30:44.333Z,55.83
2018-09-28T23:33:15.881Z,56.71
2018-09-28T23:35:48.425Z,57.08
2018-09-28T23:38:19.862Z,57.01
2018-09-28T23:40:52.197Z,57.04
2018-09-28T23:43:23.636Z,57.57
2018-09-28T23:45:54.706Z,57.79
2018-09-28T23:48:24.891Z,58.03
2018-09-28T23:50:57.790Z,58.01
2018-09-28T23:53:30.567Z,57.97
2018-09-28T23:56:03.200Z,58.58
2018-09-28T23:58:37.661Z,58.60
